Time;durP1;ratioP1;P1;durP2;ratioP2;P2;SDS_P1;SDS_P2;PMS_P1;PMS_P2;Temp;Humidity;BMP_temperature;BMP_pressure;BME280_temperature;BME280_humidity;BME280_pressure;Samples;Min_cycle;Max_cycle;Signal;HPM_P1;HPM_P2
2021/11/19 00:00:27;;;;;;;13.87;4.57;;;14.10;96.70;;;;;;5089804;28;20050;-76
2021/11/19 00:02:58;;;;;;;19.77;4.38;;;14.10;96.70;;;;;;5091875;28;20046;-76
2021/11/19 00:05:24;;;;;;;11.77;4.80;;;14.10;96.70;;;;;;5091125;28;20443;-76
2021/11/19 00:07:49;;;;;;;18.33;4.95;;;14.10;96.70;;;;;;5090712;28;20049;-77
2021/11/19 00:10:15;;;;;;;8.60;3.97;;;14.10;96.80;;;;;;5091427;28;20047;-76
2021/11/19 00:12:42;;;;;;;19.00;4.65;;;14.10;96.90;;;;;;5091569;28;20069;-76
2021/11/19 00:15:09;;;;;;;20.50;3.40;;;14.10;96.80;;;;;;5092521;28;20467;-76
2021/11/19 00:17:35;;;;;;;10.02;4.68;;;14.10;96.80;;;;;;5091486;28;20040;-76
2021/11/19 00:20:07;;;;;;;6.57;3.30;;;14.10;96.80;;;;;;5090658;28;20115;-77
2021/11/19 00:22:33;;;;;;;10.52;4.35;;;14.10;96.80;;;;;;5090690;28;20020;-76
2021/11/19 00:24:59;;;;;;;10.10;3.90;;;14.10;96.80;;;;;;5091640;28;20488;-77
2021/11/19 00:27:25;;;;;;;13.95;4.50;;;14.10;96.80;;;;;;5089989;28;20063;-77
2021/11/19 00:29:52;;;;;;;12.40;3.88;;;14.10;96.80;;;;;;5090004;28;20042;-77
2021/11/19 00:32:19;;;;;;;12.35;4.18;;;14.10;96.80;;;;;;5090847;28;20016;-77
2021/11/19 00:34:48;;;;;;;12.00;3.60;;;14.10;96.70;;;;;;5090843;28;20482;-77
2021/11/19 00:37:14;;;;;;;8.65;3.90;;;14.10;96.80;;;;;;5091253;28;20357;-76
2021/11/19 00:39:40;;;;;;;8.88;3.25;;;14.10;96.80;;;;;;5092038;28;20048;-76
2021/11/19 00:42:08;;;;;;;7.25;3.33;;;14.10;96.70;;;;;;5075659;28;20047;-76
2021/11/19 00:44:35;;;;;;;7.47;3.22;;;14.10;96.70;;;;;;5095389;28;20433;-77
2021/11/19 00:47:01;;;;;;;9.32;3.10;;;14.10;96.70;;;;;;5095010;28;20028;-76
2021/11/19 00:49:32;;;;;;;10.15;3.38;;;14.20;96.60;;;;;;5095941;28;20028;-76
2021/11/19 00:52:00;;;;;;;19.83;3.95;;;14.20;96.60;;;;;;5094725;28;20035;-76
2021/11/19 00:54:28;;;;;;;11.85;4.28;;;14.20;96.60;;;;;;5076223;28;20024;-76
2021/11/19 00:57:00;;;;;;;9.48;3.10;;;14.20;96.60;;;;;;5076571;28;20061;-76
2021/11/19 00:59:28;;;;;;;10.88;3.80;;;14.10;96.60;;;;;;5076367;28;20036;-76
2021/11/19 01:02:00;;;;;;;8.98;4.07;;;14.10;96.60;;;;;;5093964;28;20485;-76
2021/11/19 01:04:25;;;;;;;9.55;3.33;;;14.10;96.60;;;;;;5076988;28;20077;-76
2021/11/19 01:06:52;;;;;;;10.82;3.78;;;14.10;96.60;;;;;;5076471;28;20028;-76
2021/11/19 01:09:29;;;;;;;11.50;3.70;;;14.10;96.60;;;;;;5075752;28;20113;-76
2021/11/19 01:11:56;;;;;;;7.78;3.50;;;14.10;96.60;;;;;;5076259;28;20078;-76
2021/11/19 01:14:30;;;;;;;13.40;3.15;;;14.10;96.60;;;;;;5076039;28;20414;-76
2021/11/19 01:17:02;;;;;;;9.57;3.28;;;14.20;96.60;;;;;;5073988;28;20032;-76
2021/11/19 01:19:34;;;;;;;8.02;3.60;;;14.10;96.60;;;;;;5075836;28;20044;-75
2021/11/19 01:22:07;;;;;;;11.20;3.28;;;14.10;96.60;;;;;;5075242;28;20107;-75
2021/11/19 01:24:34;;;;;;;11.30;2.85;;;14.10;96.60;;;;;;5094766;28;20112;-76
2021/11/19 01:27:00;;;;;;;10.60;3.45;;;14.10;96.60;;;;;;5075698;28;20031;-76
2021/11/19 01:29:26;;;;;;;9.02;3.72;;;14.10;96.60;;;;;;5075704;28;20042;-76
2021/11/19 01:32:01;;;;;;;8.95;4.20;;;14.10;96.60;;;;;;5076056;28;20028;-76
2021/11/19 01:34:45;;;;;;;8.53;3.27;;;14.10;96.60;;;;;;5088344;28;20031;-75
2021/11/19 01:37:23;;;;;;;7.40;3.05;;;14.10;96.60;;;;;;5071533;28;20036;-75
2021/11/19 01:40:02;;;;;;;8.15;2.63;;;14.10;96.50;;;;;;5076372;28;20032;-75
2021/11/19 01:42:48;;;;;;;9.35;3.63;;;14.10;96.60;;;;;;5074361;28;20113;-76
2021/11/19 01:45:18;;;;;;;8.30;2.95;;;14.10;96.60;;;;;;5075149;28;20026;-75
2021/11/19 01:47:48;;;;;;;13.25;4.75;;;14.10;96.60;;;;;;5075336;28;20020;-75
2021/11/19 01:50:29;;;;;;;12.30;3.85;;;14.10;96.60;;;;;;5075048;28;20081;-75
2021/11/19 01:53:13;;;;;;;9.05;2.60;;;14.10;96.60;;;;;;5076135;28;20020;-75
2021/11/19 01:55:47;;;;;;;10.48;3.88;;;14.10;96.60;;;;;;5074717;28;20031;-75
2021/11/19 01:58:23;;;;;;;6.80;2.55;;;14.10;96.60;;;;;;5074838;28;20036;-76
2021/11/19 02:00:56;;;;;;;11.15;3.22;;;14.10;96.60;;;;;;5094017;28;20032;-75
2021/11/19 02:03:26;;;;;;;5.97;2.42;;;14.10;96.60;;;;;;5067988;28;20479;-75
2021/11/19 02:06:02;;;;;;;7.50;2.72;;;14.10;96.60;;;;;;5074772;28;20383;-75
2021/11/19 02:08:33;;;;;;;10.90;2.97;;;14.10;96.60;;;;;;5093535;28;20217;-75
2021/11/19 02:11:08;;;;;;;8.82;3.60;;;14.10;96.60;;;;;;5074558;28;20024;-76
2021/11/19 02:13:54;;;;;;;10.10;3.47;;;14.20;96.60;;;;;;5075558;28;20111;-76
2021/11/19 02:16:27;;;;;;;14.10;2.90;;;14.10;96.60;;;;;;5074943;28;20035;-76
2021/11/19 02:19:00;;;;;;;7.88;3.28;;;14.10;96.60;;;;;;5054816;28;20480;-76
2021/11/19 02:21:48;;;;;;;11.05;3.15;;;14.10;96.60;;;;;;5051844;28;20029;-75
2021/11/19 02:24:26;;;;;;;13.48;3.90;;;14.10;96.70;;;;;;5046099;28;20029;-76
2021/11/19 02:27:01;;;;;;;8.70;3.63;;;14.10;96.70;;;;;;5052084;28;20389;-76
2021/11/19 02:29:33;;;;;;;11.65;4.05;;;14.00;96.70;;;;;;5042735;28;20029;-75
2021/11/19 02:32:06;;;;;;;7.78;3.40;;;14.00;96.70;;;;;;5051930;28;20037;-76
2021/11/19 02:34:42;;;;;;;8.35;3.47;;;14.00;96.80;;;;;;5044064;28;20044;-75
2021/11/19 02:37:42;;;;;;;15.20;3.42;;;14.00;96.80;;;;;;5051013;28;20133;-76
2021/11/19 02:40:12;;;;;;;7.95;3.22;;;14.00;96.80;;;;;;5031893;28;20041;-75
2021/11/19 02:42:48;;;;;;;6.45;2.63;;;14.00;96.70;;;;;;5051149;28;20050;-75
2021/11/19 02:45:19;;;;;;;10.45;3.63;;;14.10;96.80;;;;;;5052472;28;20357;-75
2021/11/19 02:47:48;;;;;;;12.57;2.85;;;14.00;96.70;;;;;;5050849;28;20047;-75
2021/11/19 02:50:18;;;;;;;15.73;3.38;;;14.00;96.70;;;;;;5049538;28;20036;-75
2021/11/19 02:52:47;;;;;;;2.55;1.80;;;14.00;96.70;;;;;;5051395;28;20029;-75
2021/11/19 02:55:19;;;;;;;9.60;3.47;;;14.00;96.70;;;;;;5038434;28;20173;-75
2021/11/19 02:57:45;;;;;;;9.75;2.42;;;14.10;96.60;;;;;;5053387;28;20388;-75
2021/11/19 03:00:20;;;;;;;8.50;3.15;;;14.10;96.60;;;;;;5052410;28;20036;-76
2021/11/19 03:02:47;;;;;;;11.20;3.17;;;14.00;96.60;;;;;;5054216;28;20021;-75
2021/11/19 03:05:15;;;;;;;6.88;2.78;;;14.00;96.60;;;;;;5052494;28;20108;-75
2021/11/19 03:07:42;;;;;;;14.68;3.90;;;14.00;96.60;;;;;;5045782;28;20123;-76
2021/11/19 03:10:19;;;;;;;5.03;2.78;;;14.00;96.60;;;;;;5051864;28;20028;-75
2021/11/19 03:12:46;;;;;;;12.10;3.20;;;14.00;96.60;;;;;;5055179;28;20394;-75
2021/11/19 03:15:16;;;;;;;8.27;2.75;;;13.90;96.50;;;;;;5049942;28;20437;-76
2021/11/19 03:17:42;;;;;;;9.88;2.60;;;13.90;96.50;;;;;;5050748;28;20461;-76
2021/11/19 03:20:10;;;;;;;12.43;3.30;;;14.00;96.50;;;;;;5050791;28;20491;-75
2021/11/19 03:22:36;;;;;;;11.05;3.47;;;14.00;96.40;;;;;;5049407;28;20103;-76
2021/11/19 03:25:06;;;;;;;9.10;2.97;;;13.90;96.40;;;;;;5050810;28;20032;-76
2021/11/19 03:27:32;;;;;;;6.55;2.28;;;14.00;96.40;;;;;;5045316;28;20476;-76
2021/11/19 03:30:09;;;;;;;8.65;2.80;;;14.00;96.40;;;;;;5051932;28;20025;-76
2021/11/19 03:32:36;;;;;;;10.30;2.95;;;14.00;96.40;;;;;;5051489;28;20032;-75
2021/11/19 03:35:04;;;;;;;15.10;3.60;;;14.00;96.40;;;;;;5052214;28;20024;-76
2021/11/19 03:37:29;;;;;;;11.23;3.20;;;13.90;96.40;;;;;;5051858;28;20055;-76
2021/11/19 03:39:55;;;;;;;12.52;2.53;;;13.90;96.30;;;;;;5050194;28;20486;-76
2021/11/19 03:42:23;;;;;;;7.55;2.92;;;13.90;96.30;;;;;;5050587;28;20021;-76
2021/11/19 03:44:59;;;;;;;10.57;3.50;;;13.90;96.40;;;;;;5050573;28;20025;-76
2021/11/19 03:47:37;;;;;;;7.50;3.30;;;13.90;96.40;;;;;;5051168;28;20025;-76
2021/11/19 03:50:12;;;;;;;12.05;3.75;;;13.80;96.40;;;;;;5047308;28;20028;-76
2021/11/19 03:52:41;;;;;;;9.57;2.90;;;13.90;96.40;;;;;;5050651;28;20388;-76
2021/11/19 03:55:17;;;;;;;5.13;2.67;;;13.90;96.30;;;;;;5050884;28;20610;-76
2021/11/19 03:57:43;;;;;;;4.40;2.47;;;13.90;96.40;;;;;;5049262;28;20119;-76
2021/11/19 04:00:42;;;;;;;11.60;4.47;;;13.90;96.30;;;;;;5048617;28;20036;-76
2021/11/19 04:03:10;;;;;;;7.93;3.22;;;13.90;96.30;;;;;;5050433;28;20044;-76
2021/11/19 04:05:39;;;;;;;8.10;3.75;;;13.90;96.20;;;;;;5050971;28;20108;-75
2021/11/19 04:08:05;;;;;;;6.95;2.92;;;13.90;96.20;;;;;;5050306;28;20025;-76
2021/11/19 04:10:37;;;;;;;11.73;3.47;;;13.90;96.30;;;;;;5048224;28;20040;-76
2021/11/19 04:13:04;;;;;;;7.30;2.97;;;13.90;96.20;;;;;;5051741;28;20052;-75
2021/11/19 04:15:36;;;;;;;9.63;3.40;;;13.90;96.20;;;;;;5048951;28;20380;-75
2021/11/19 04:18:05;;;;;;;12.82;3.00;;;13.90;96.30;;;;;;5049257;28;20075;-76
2021/11/19 04:20:31;;;;;;;14.05;2.40;;;13.90;96.20;;;;;;5049479;28;20064;-76
2021/11/19 04:22:57;;;;;;;9.50;2.83;;;13.90;96.20;;;;;;5051425;28;20053;-76
2021/11/19 04:25:26;;;;;;;6.70;2.83;;;13.90;96.20;;;;;;5048309;28;20387;-75
2021/11/19 04:27:53;;;;;;;7.50;3.22;;;13.90;96.20;;;;;;5050393;28;20029;-75
2021/11/19 04:30:41;;;;;;;5.10;2.38;;;14.00;96.20;;;;;;5050506;28;20086;-75
2021/11/19 04:33:08;;;;;;;9.65;3.53;;;13.90;96.20;;;;;;5049769;28;20029;-75
2021/11/19 04:35:34;;;;;;;6.72;2.92;;;13.90;96.20;;;;;;5049727;28;20494;-75
2021/11/19 04:38:03;;;;;;;8.48;2.63;;;13.90;96.30;;;;;;5049048;28;20037;-75
2021/11/19 04:40:30;;;;;;;4.97;2.78;;;13.80;96.30;;;;;;5050277;28;20100;-75
2021/11/19 04:42:56;;;;;;;13.60;3.28;;;13.80;96.30;;;;;;5048971;28;20029;-76
2021/11/19 04:45:26;;;;;;;8.73;3.05;;;13.90;96.30;;;;;;5050934;28;20435;-75
2021/11/19 04:47:53;;;;;;;10.00;3.00;;;13.80;96.30;;;;;;5043528;28;20048;-76
2021/11/19 04:50:22;;;;;;;11.73;3.80;;;13.80;96.30;;;;;;5050902;28;20029;-76
2021/11/19 04:52:48;;;;;;;8.57;2.75;;;13.90;96.30;;;;;;5048408;28;20120;-76
2021/11/19 04:55:15;;;;;;;10.68;3.85;;;13.90;96.30;;;;;;5049042;28;20017;-75
2021/11/19 04:57:42;;;;;;;4.47;2.40;;;13.90;96.30;;;;;;5050093;28;20029;-76
2021/11/19 05:00:13;;;;;;;14.05;3.55;;;13.80;96.30;;;;;;5049459;28;20033;-76
2021/11/19 05:02:56;;;;;;;8.68;3.40;;;13.90;96.40;;;;;;5046065;28;20362;-76
2021/11/19 05:05:28;;;;;;;7.53;2.30;;;13.90;96.40;;;;;;5050094;28;20036;-75
2021/11/19 05:07:54;;;;;;;6.40;2.95;;;13.90;96.40;;;;;;5048530;28;20029;-76
2021/11/19 05:10:20;;;;;;;10.48;3.80;;;13.90;96.50;;;;;;5049054;28;20488;-76
2021/11/19 05:12:52;;;;;;;7.55;3.22;;;13.80;96.40;;;;;;5049633;28;20427;-68
2021/11/19 05:15:19;;;;;;;10.32;3.50;;;13.90;96.50;;;;;;5051203;28;20029;-76
2021/11/19 05:17:46;;;;;;;8.30;2.97;;;13.80;96.40;;;;;;5052481;28;20055;-76
2021/11/19 05:20:15;;;;;;;7.82;3.13;;;13.90;96.50;;;;;;5053244;28;20392;-76
2021/11/19 05:22:41;;;;;;;13.98;3.35;;;13.80;96.50;;;;;;5054580;28;20066;-77
2021/11/19 05:25:10;;;;;;;6.75;2.85;;;13.90;96.50;;;;;;5058413;28;20116;-75
2021/11/19 05:27:36;;;;;;;8.48;3.20;;;13.80;96.50;;;;;;5050855;28;20018;-76
2021/11/19 05:30:05;;;;;;;9.02;3.53;;;13.80;96.50;;;;;;5053694;28;20552;-75
2021/11/19 05:32:43;;;;;;;9.35;2.95;;;13.80;96.50;;;;;;5052991;28;20029;-76
2021/11/19 05:35:10;;;;;;;2.63;1.85;;;13.90;96.60;;;;;;5053427;28;20178;-76
2021/11/19 05:37:37;;;;;;;10.68;4.07;;;13.90;96.60;;;;;;5052450;28;20476;-75
2021/11/19 05:40:05;;;;;;;14.55;3.95;;;13.90;96.60;;;;;;5057376;28;20037;-78
2021/11/19 05:42:31;;;;;;;8.75;2.95;;;13.90;96.50;;;;;;5051482;28;20393;-70
2021/11/19 05:44:57;;;;;;;5.20;2.70;;;13.90;96.50;;;;;;5052107;28;20473;-77
2021/11/19 05:47:25;;;;;;;9.75;3.75;;;13.90;96.50;;;;;;5055798;28;20109;-76
2021/11/19 05:50:06;;;;;;;19.73;4.50;;;13.90;96.50;;;;;;5052602;28;20024;-72
2021/11/19 05:52:32;;;;;;;14.07;3.13;;;13.90;96.50;;;;;;5052150;28;20116;-76
2021/11/19 05:55:00;;;;;;;6.28;2.72;;;13.90;96.50;;;;;;5055609;28;20425;-75
2021/11/19 05:57:26;;;;;;;9.27;2.85;;;13.90;96.50;;;;;;5050200;28;20040;-75
2021/11/19 05:59:52;;;;;;;4.45;2.28;;;13.90;96.50;;;;;;5050111;28;20032;-76
2021/11/19 06:02:38;;;;;;;9.77;3.22;;;13.90;96.50;;;;;;5057148;28;20086;-76
2021/11/19 06:05:24;;;;;;;7.32;2.55;;;13.90;96.70;;;;;;5054583;28;20715;-75
2021/11/19 06:07:51;;;;;;;13.50;4.28;;;13.90;96.40;;;;;;5057002;28;20040;-76
2021/11/19 06:10:19;;;;;;;3.42;2.60;;;13.90;96.50;;;;;;5053044;28;20036;-76
2021/11/19 06:12:51;;;;;;;12.55;3.63;;;13.90;96.50;;;;;;5053429;28;20025;-78
2021/11/19 06:15:29;;;;;;;7.18;3.28;;;13.90;96.50;;;;;;5051302;28;20043;-80
2021/11/19 06:18:00;;;;;;;10.82;3.40;;;13.90;96.50;;;;;;5051786;28;20049;-74
2021/11/19 06:20:33;;;;;;;7.88;3.50;;;13.90;96.50;;;;;;5057802;28;20029;-83
2021/11/19 06:23:15;;;;;;;8.40;3.00;;;13.90;96.50;;;;;;5049895;28;20476;-74
2021/11/19 06:25:43;;;;;;;11.57;2.90;;;13.90;96.50;;;;;;5040051;28;20033;-75
2021/11/19 06:28:25;;;;;;;8.55;2.78;;;13.90;96.50;;;;;;5054961;28;20059;-74
2021/11/19 06:30:51;;;;;;;10.02;2.92;;;13.90;96.60;;;;;;5055896;28;20116;-76
2021/11/19 06:33:19;;;;;;;6.85;3.20;;;13.90;96.50;;;;;;5057931;28;20539;-79
2021/11/19 06:35:46;;;;;;;4.90;2.95;;;13.90;96.50;;;;;;5037958;28;20382;-76
2021/11/19 06:38:12;;;;;;;9.80;2.95;;;13.90;96.50;;;;;;5049343;28;20041;-76
2021/11/19 06:40:43;;;;;;;5.07;2.40;;;13.90;96.50;;;;;;5055483;28;20439;-80
2021/11/19 06:43:28;;;;;;;7.40;2.55;;;13.90;96.50;;;;;;5049974;28;20126;-82
2021/11/19 06:46:06;;;;;;;5.97;2.33;;;13.90;96.50;;;;;;5050660;28;20083;-78
2021/11/19 06:48:49;;;;;;;5.38;2.50;;;13.90;96.50;;;;;;5050530;28;20055;-78
2021/11/19 06:51:31;;;;;;;8.43;2.17;;;13.90;96.40;;;;;;5042505;28;20040;-78
2021/11/19 06:54:26;;;;;;;7.78;1.77;;;13.90;96.40;;;;;;5017206;28;20036;-77
2021/11/19 06:57:19;;;;;;;6.00;2.45;;;13.90;96.40;;;;;;5032886;28;20147;-77
2021/11/19 06:59:45;;;;;;;6.68;2.65;;;14.00;96.40;;;;;;5051634;28;20040;-78
2021/11/19 07:02:12;;;;;;;14.43;2.50;;;13.90;96.40;;;;;;5051550;28;20029;-77
2021/11/19 07:04:38;;;;;;;5.68;2.53;;;13.90;96.40;;;;;;5053564;28;20032;-77
2021/11/19 07:07:08;;;;;;;2.65;1.50;;;13.90;96.40;;;;;;5051295;28;20099;-78
2021/11/19 07:09:52;;;;;;;4.55;1.58;;;13.90;96.40;;;;;;5051723;28;20554;-77
2021/11/19 07:12:37;;;;;;;5.63;2.38;;;14.00;96.40;;;;;;5053050;28;20036;-76
2021/11/19 07:15:08;;;;;;;7.57;2.60;;;13.90;96.40;;;;;;5050143;28;20056;-78
2021/11/19 07:17:34;;;;;;;10.73;2.45;;;14.00;96.40;;;;;;5055699;28;20040;-76
2021/11/19 07:20:00;;;;;;;2.13;1.45;;;14.00;96.40;;;;;;5059693;28;20025;-76
2021/11/19 07:22:27;;;;;;;8.20;1.95;;;14.00;96.40;;;;;;5056244;28;20029;-76
2021/11/19 07:25:04;;;;;;;6.10;1.50;;;14.00;96.30;;;;;;5050658;28;20423;-76
2021/11/19 07:27:30;;;;;;;2.03;1.00;;;14.00;96.40;;;;;;5047842;28;20034;-76
2021/11/19 07:29:55;;;;;;;2.33;2.13;;;14.00;96.30;;;;;;5050949;28;20040;-76
2021/11/19 07:32:41;;;;;;;3.85;1.70;;;13.90;96.30;;;;;;5049457;28;20025;-76
2021/11/19 07:35:26;;;;;;;4.15;1.67;;;14.00;96.20;;;;;;5060829;28;20074;-76
2021/11/19 07:38:16;;;;;;;5.72;1.55;;;14.00;96.20;;;;;;5051163;28;20481;-71
2021/11/19 07:40:57;;;;;;;4.57;1.65;;;14.00;96.20;;;;;;5040072;28;20362;-82
2021/11/19 07:43:40;;;;;;;6.00;1.33;;;14.00;96.20;;;;;;5057848;28;20111;-82
2021/11/19 07:46:24;;;;;;;4.43;1.65;;;14.00;96.20;;;;;;5059514;28;20082;-80
2021/11/19 07:48:54;;;;;;;4.55;1.60;;;14.00;96.10;;;;;;5057900;28;20436;-83
2021/11/19 07:51:26;;;;;;;4.90;1.45;;;14.10;96.10;;;;;;5046039;28;20060;-80
2021/11/19 07:53:53;;;;;;;7.05;1.88;;;14.00;96.10;;;;;;5052140;28;20049;-81
2021/11/19 07:56:27;;;;;;;2.55;1.92;;;14.00;96.10;;;;;;5052114;28;20026;-81
2021/11/19 07:58:53;;;;;;;5.07;1.60;;;14.10;96.20;;;;;;5053937;28;20109;-82
2021/11/19 08:01:19;;;;;;;3.20;1.67;;;14.00;96.10;;;;;;5054616;28;20102;-78
2021/11/19 08:03:45;;;;;;;3.38;1.38;;;14.00;96.10;;;;;;5060065;28;20484;-77
2021/11/19 08:06:11;;;;;;;5.65;1.58;;;14.00;96.20;;;;;;5056464;28;20032;-77
2021/11/19 08:08:39;;;;;;;6.43;1.75;;;14.00;96.20;;;;;;5061875;28;20141;-78
2021/11/19 08:11:12;;;;;;;3.10;1.70;;;14.00;96.20;;;;;;5062327;28;20036;-77
2021/11/19 08:13:38;;;;;;;4.30;1.70;;;14.00;96.20;;;;;;5050564;28;20021;-78
2021/11/19 08:16:05;;;;;;;1.65;1.17;;;14.00;96.20;;;;;;5049478;28;20100;-78
2021/11/19 08:18:51;;;;;;;11.07;1.77;;;14.00;96.20;;;;;;5047907;28;20051;-78
2021/11/19 08:21:17;;;;;;;6.15;2.05;;;14.00;96.20;;;;;;5049351;28;20025;-78
2021/11/19 08:23:54;;;;;;;12.35;1.77;;;14.00;96.30;;;;;;5050233;28;20384;-76
2021/11/19 08:26:25;;;;;;;4.57;1.90;;;14.00;96.30;;;;;;5053697;28;20122;-75
2021/11/19 08:28:51;;;;;;;4.35;1.65;;;14.00;96.30;;;;;;5051355;28;20043;-75
2021/11/19 08:31:19;;;;;;;6.57;1.27;;;14.00;96.30;;;;;;5050180;28;20061;-75
2021/11/19 08:33:48;;;;;;;15.38;2.53;;;14.00;96.30;;;;;;5051408;28;20033;-76
2021/11/19 08:36:16;;;;;;;10.77;2.42;;;14.00;96.30;;;;;;5050662;28;20040;-76
2021/11/19 08:38:42;;;;;;;5.35;1.50;;;14.00;96.30;;;;;;5037966;28;20091;-77
2021/11/19 08:41:11;;;;;;;9.93;1.80;;;14.00;96.40;;;;;;5051713;28;20033;-76
2021/11/19 08:43:40;;;;;;;6.63;1.90;;;14.00;96.40;;;;;;5049636;28;20025;-77
2021/11/19 08:46:09;;;;;;;4.63;1.65;;;14.00;96.40;;;;;;5051093;28;20029;-76
2021/11/19 08:48:36;;;;;;;6.70;1.58;;;14.00;96.30;;;;;;5049375;28;20029;-76
2021/11/19 08:51:09;;;;;;;7.18;2.05;;;14.00;96.40;;;;;;5051326;28;20542;-76
2021/11/19 08:53:37;;;;;;;3.95;0.90;;;14.00;96.40;;;;;;5049662;28;20061;-76
2021/11/19 08:56:04;;;;;;;1.77;1.20;;;14.00;96.30;;;;;;5051571;28;20029;-76
2021/11/19 08:58:36;;;;;;;5.53;1.50;;;14.00;96.30;;;;;;5050459;28;20122;-76
2021/11/19 09:01:05;;;;;;;7.50;1.17;;;14.00;96.20;;;;;;5057394;28;20369;-76
2021/11/19 09:03:31;;;;;;;7.90;1.58;;;14.00;96.20;;;;;;5054110;28;20770;-76
2021/11/19 09:05:58;;;;;;;4.45;1.45;;;14.00;96.20;;;;;;5054332;28;20021;-78
2021/11/19 09:08:26;;;;;;;8.30;2.03;;;14.00;96.20;;;;;;5055283;28;20037;-76
2021/11/19 09:10:55;;;;;;;7.82;1.95;;;14.00;96.20;;;;;;5053702;28;20025;-77
2021/11/19 09:13:21;;;;;;;9.63;2.17;;;14.00;96.20;;;;;;5054405;28;20033;-76
2021/11/19 09:15:49;;;;;;;7.05;2.08;;;14.00;96.20;;;;;;5053529;28;20107;-76
2021/11/19 09:18:36;;;;;;;2.65;1.33;;;14.00;96.20;;;;;;5075025;28;20248;-78
2021/11/19 09:21:19;;;;;;;8.20;3.05;;;14.00;96.20;;;;;;5093277;28;20483;-77
2021/11/19 09:23:58;;;;;;;9.10;1.80;;;14.00;96.20;;;;;;5093530;28;20024;-71
2021/11/19 09:26:56;;;;;;;12.90;1.85;;;14.00;96.30;;;;;;5094111;28;20040;-71
2021/11/19 09:29:32;;;;;;;9.57;2.03;;;14.00;96.30;;;;;;5092510;28;20130;-73
2021/11/19 09:31:59;;;;;;;7.55;2.35;;;14.00;96.40;;;;;;5093796;28;20045;-73
2021/11/19 09:34:26;;;;;;;10.27;3.00;;;14.00;96.40;;;;;;5092311;28;20438;-73
2021/11/19 09:36:52;;;;;;;5.63;1.67;;;14.00;96.40;;;;;;5094224;28;20024;-79
2021/11/19 09:39:21;;;;;;;14.02;2.33;;;14.00;96.40;;;;;;5094374;28;20043;-77
2021/11/19 09:41:58;;;;;;;6.18;1.75;;;14.00;96.40;;;;;;5092551;28;20028;-76
2021/11/19 09:44:42;;;;;;;15.57;2.80;;;14.00;96.40;;;;;;5093949;28;20039;-76
2021/11/19 09:47:17;;;;;;;6.35;1.38;;;14.00;96.40;;;;;;5093836;28;20020;-76
2021/11/19 09:50:22;;;;;;;3.40;1.70;;;14.00;96.40;;;;;;5090974;28;20031;-74
2021/11/19 09:53:26;;;;;;;8.02;2.00;;;14.00;96.50;;;;;;5088127;28;20028;-77
2021/11/19 09:56:22;;;;;;;4.78;2.13;;;14.00;96.50;;;;;;5088613;28;20883;-78
2021/11/19 09:58:55;;;;;;;8.57;1.80;;;14.00;96.50;;;;;;5092557;28;20046;-76
2021/11/19 10:01:39;;;;;;;6.60;2.40;;;14.10;96.60;;;;;;5074540;28;20031;-75
2021/11/19 10:04:42;;;;;;;10.88;2.47;;;14.10;96.60;;;;;;5092110;28;20115;-77
2021/11/19 10:07:23;;;;;;;9.10;1.88;;;14.10;96.60;;;;;;5092640;28;20039;-77
2021/11/19 10:10:08;;;;;;;9.02;1.75;;;14.10;96.60;;;;;;5092530;28;20460;-77
2021/11/19 10:12:53;;;;;;;10.63;2.05;;;14.10;96.60;;;;;;5092185;28;20070;-78
2021/11/19 10:15:59;;;;;;;3.05;1.48;;;14.20;96.60;;;;;;5090630;28;20035;-78
2021/11/19 10:18:46;;;;;;;7.85;2.15;;;14.20;96.60;;;;;;5016499;28;20121;-77
2021/11/19 10:21:33;;;;;;;8.23;1.98;;;14.10;96.80;;;;;;5086707;28;20047;-76
2021/11/19 10:24:40;;;;;;;5.85;1.92;;;14.20;96.60;;;;;;5089014;28;20024;-75
2021/11/19 10:27:11;;;;;;;4.55;1.88;;;14.20;96.60;;;;;;5092667;28;20020;-75
2021/11/19 10:29:45;;;;;;;3.65;1.25;;;14.20;96.60;;;;;;5091204;28;20061;-76
2021/11/19 10:32:15;;;;;;;7.07;1.75;;;14.20;96.60;;;;;;5092417;28;20024;-76
2021/11/19 10:34:55;;;;;;;7.03;1.27;;;14.30;96.60;;;;;;5092545;28;20044;-76
2021/11/19 10:37:27;;;;;;;9.40;1.85;;;14.20;96.60;;;;;;5089383;28;20168;-77
2021/11/19 10:40:30;;;;;;;7.60;1.42;;;14.30;96.60;;;;;;5093055;28;20043;-76
2021/11/19 10:43:44;;;;;;;6.03;1.83;;;14.30;96.60;;;;;;5082892;28;20479;-76
2021/11/19 10:46:45;;;;;;;3.37;1.10;;;14.40;96.60;;;;;;5091078;28;20066;-76
2021/11/19 10:49:46;;;;;;;3.83;1.48;;;14.40;96.50;;;;;;5073090;28;20032;-75
2021/11/19 10:52:20;;;;;;;9.25;1.95;;;14.40;96.50;;;;;;5090847;28;20016;-75
2021/11/19 10:54:56;;;;;;;4.80;1.80;;;14.40;96.40;;;;;;5092580;28;20024;-77
2021/11/19 10:57:44;;;;;;;7.45;2.05;;;14.40;96.40;;;;;;5092953;28;20111;-77
2021/11/19 11:00:25;;;;;;;8.10;1.92;;;14.40;96.40;;;;;;5093654;28;20039;-77
2021/11/19 11:02:54;;;;;;;6.38;1.67;;;14.40;96.40;;;;;;5092353;28;20036;-77
2021/11/19 11:05:31;;;;;;;9.38;1.88;;;14.40;96.30;;;;;;5092940;28;20024;-77
2021/11/19 11:08:10;;;;;;;4.63;1.52;;;14.40;96.30;;;;;;5091242;28;20027;-76
2021/11/19 11:10:43;;;;;;;7.55;1.70;;;14.40;96.30;;;;;;5091702;28;20032;-76
2021/11/19 11:13:39;;;;;;;6.13;1.95;;;14.40;96.30;;;;;;5090027;28;20032;-75
2021/11/19 11:16:17;;;;;;;4.30;1.60;;;14.40;96.30;;;;;;5091131;28;20028;-76
2021/11/19 11:19:03;;;;;;;6.93;1.90;;;14.40;96.40;;;;;;5091129;28;20047;-76
2021/11/19 11:21:38;;;;;;;4.88;1.92;;;14.50;96.30;;;;;;5091058;28;20405;-76
2021/11/19 11:24:34;;;;;;;10.30;1.90;;;14.50;96.20;;;;;;5091808;28;20055;-76
2021/11/19 11:27:11;;;;;;;10.98;2.13;;;14.40;96.20;;;;;;5090577;28;20445;-76
2021/11/19 11:29:46;;;;;;;5.05;1.73;;;14.40;96.20;;;;;;5090403;28;20046;-76
2021/11/19 11:32:17;;;;;;;3.88;1.75;;;14.50;96.20;;;;;;5090241;28;20024;-75
2021/11/19 11:34:44;;;;;;;11.07;1.55;;;14.50;96.20;;;;;;5086401;28;20039;-76
2021/11/19 11:37:18;;;;;;;1.98;1.00;;;14.60;96.20;;;;;;5087357;28;20051;-77
2021/11/19 11:40:05;;;;;;;2.00;1.30;;;14.60;96.30;;;;;;5091725;28;20125;-77
2021/11/19 11:42:38;;;;;;;6.28;1.23;;;14.60;96.30;;;;;;5088811;28;20027;-77
2021/11/19 11:45:55;;;;;;;5.72;0.77;;;14.70;96.20;;;;;;5090895;28;20024;-77
2021/11/19 11:48:27;;;;;;;9.73;1.83;;;14.70;96.20;;;;;;5042672;28;20101;-76
2021/11/19 11:51:06;;;;;;;3.13;0.93;;;14.80;96.10;;;;;;5070567;28;20028;-77
2021/11/19 11:53:59;;;;;;;7.78;2.05;;;14.80;96.20;;;;;;5091335;28;20032;-77
2021/11/19 11:56:37;;;;;;;4.57;1.90;;;14.80;96.10;;;;;;5089714;28;20089;-77
2021/11/19 11:59:05;;;;;;;4.50;1.52;;;14.80;96.10;;;;;;5091339;28;20471;-76
2021/11/19 12:01:53;;;;;;;3.78;1.40;;;14.80;96.10;;;;;;5097382;28;20364;-77
2021/11/19 12:04:51;;;;;;;11.73;2.20;;;14.80;96.10;;;;;;5076520;28;20039;-77
2021/11/19 12:07:26;;;;;;;6.22;1.52;;;14.80;96.10;;;;;;5089559;28;20813;-72
2021/11/19 12:10:44;;;;;;;10.52;1.70;;;14.80;96.20;;;;;;5090637;28;20036;-79
2021/11/19 12:13:31;;;;;;;5.88;2.05;;;14.90;96.20;;;;;;5056558;28;20101;-79
2021/11/19 12:16:06;;;;;;;4.38;1.60;;;14.90;96.20;;;;;;5090994;28;20028;-79
2021/11/19 12:18:52;;;;;;;5.35;1.27;;;15.00;96.20;;;;;;5090537;28;20054;-79
2021/11/19 12:21:32;;;;;;;5.57;1.50;;;15.00;96.10;;;;;;5087170;28;20048;-77
2021/11/19 12:24:28;;;;;;;6.50;1.52;;;15.00;96.10;;;;;;5088723;28;20024;-77
2021/11/19 12:27:14;;;;;;;4.00;1.33;;;15.10;96.00;;;;;;5088421;28;20536;-77
2021/11/19 12:29:53;;;;;;;7.65;1.58;;;15.10;95.90;;;;;;5089511;28;20032;-76
2021/11/19 12:32:33;;;;;;;7.75;1.52;;;15.10;96.00;;;;;;5089487;28;20035;-77
2021/11/19 12:35:19;;;;;;;10.48;1.95;;;15.10;95.90;;;;;;5090741;28;20411;-76
2021/11/19 12:38:09;;;;;;;6.93;1.80;;;15.20;95.80;;;;;;5093390;28;20038;-77
2021/11/19 12:40:49;;;;;;;5.05;1.35;;;15.20;95.80;;;;;;5094387;28;20044;-76
2021/11/19 12:43:41;;;;;;;7.13;1.50;;;15.20;95.80;;;;;;5094999;28;20417;-76
2021/11/19 12:46:25;;;;;;;9.88;2.30;;;15.30;95.90;;;;;;5093615;28;20028;-76
2021/11/19 12:49:19;;;;;;;6.50;2.08;;;15.20;95.70;;;;;;5094011;28;20054;-76
2021/11/19 12:51:57;;;;;;;10.32;2.53;;;15.20;95.70;;;;;;5094986;28;20367;-76
2021/11/19 12:54:57;;;;;;;5.93;1.52;;;15.20;95.70;;;;;;5094466;28;20035;-76
2021/11/19 12:57:48;;;;;;;7.60;1.98;;;15.20;95.70;;;;;;5093657;28;20066;-76
2021/11/19 13:00:35;;;;;;;10.70;1.90;;;15.30;95.70;;;;;;5091985;28;20081;-76
2021/11/19 13:03:44;;;;;;;5.63;1.77;;;15.30;95.60;;;;;;5094105;28;20136;-76
2021/11/19 13:06:17;;;;;;;3.85;1.27;;;15.30;95.60;;;;;;5091723;28;20043;-76
2021/11/19 13:08:48;;;;;;;4.43;1.20;;;15.40;95.60;;;;;;5094709;28;20024;-76
2021/11/19 13:11:29;;;;;;;8.57;2.33;;;15.40;95.50;;;;;;5094495;28;20492;-78
2021/11/19 13:14:16;;;;;;;5.82;1.42;;;15.50;95.50;;;;;;5091678;28;20103;-78
2021/11/19 13:16:48;;;;;;;6.68;1.58;;;15.50;95.40;;;;;;5093360;28;20688;-75
2021/11/19 13:19:29;;;;;;;3.22;1.52;;;15.50;95.30;;;;;;5093861;28;20044;-75
2021/11/19 13:21:57;;;;;;;9.52;1.85;;;15.60;95.30;;;;;;5093856;28;20035;-75